« Back
NWS Peachtree City, Ga » Text Product » CSG Terminal Aerodrome Forecast


Printer-friendly Version
Current Version              Previous Versions:   1  2  3  4  5  6  7  8  9  

Terminal Aerodrome Forecast

148
FTUS42 KFFC 282321
TAFCSG
TAF
KCSG 282321Z 2900/2924 25011KT P6SM VCSH SCT045
     FM290200 26003KT P6SM SCT250
     FM291000 00000KT 3SM BR FEW250
     FM291300 00000KT P6SM FEW250
     FM291600 VRB03KT P6SM SCT050=



USA.gov is the U.S. government's official web portal to all federal, state and local government web resources and services.